createdAt,value
2018-04-27T00:02:20.749Z,76.61
2018-04-27T00:04:46.519Z,76.54
2018-04-27T00:07:12.269Z,76.45
2018-04-27T00:09:38.057Z,76.47
2018-04-27T00:12:03.824Z,76.35
2018-04-27T00:14:29.592Z,76.04
2018-04-27T00:16:55.341Z,75.96
2018-04-27T00:19:21.130Z,75.98
2018-04-27T00:21:46.894Z,76.01
2018-04-27T00:24:12.709Z,75.93
2018-04-27T00:26:38.464Z,76.30
2018-04-27T00:29:04.278Z,76.16
2018-04-27T00:31:30.028Z,76.19
2018-04-27T00:33:55.828Z,75.98
2018-04-27T00:36:21.584Z,75.95
2018-04-27T00:38:47.355Z,75.89
2018-04-27T00:41:13.108Z,75.78
2018-04-27T00:43:38.898Z,75.87
2018-04-27T00:46:04.639Z,76.00
2018-04-27T00:48:30.410Z,76.05
2018-04-27T00:50:56.199Z,76.44
2018-04-27T00:53:22.221Z,76.86
2018-04-27T00:55:47.996Z,76.45
2018-04-27T00:58:13.735Z,76.19
2018-04-27T01:00:39.542Z,76.24
2018-04-27T01:03:05.297Z,75.84
2018-04-27T01:05:31.087Z,75.73
2018-04-27T01:07:56.872Z,75.58
2018-04-27T01:10:22.630Z,75.56
2018-04-27T01:12:48.390Z,75.43
2018-04-27T01:15:14.211Z,74.92
2018-04-27T01:17:39.975Z,75.07
2018-04-27T01:20:05.737Z,74.85
2018-04-27T01:22:31.480Z,74.56
2018-04-27T01:24:57.272Z,74.59
2018-04-27T01:27:23.049Z,74.22
2018-04-27T01:29:48.861Z,74.00
2018-04-27T01:32:14.620Z,74.05
2018-04-27T01:34:40.552Z,73.58
2018-04-27T01:37:06.322Z,74.24
2018-04-27T01:39:38.145Z,73.94
2018-04-27T01:42:03.966Z,73.66
2018-04-27T01:44:29.744Z,73.25
2018-04-27T01:46:55.551Z,73.33
2018-04-27T01:49:21.276Z,73.28
2018-04-27T01:51:47.031Z,73.63
2018-04-27T01:54:12.789Z,73.79
2018-04-27T01:56:38.579Z,74.07
2018-04-27T01:59:04.343Z,73.96
2018-04-27T02:01:30.157Z,74.33
2018-04-27T02:03:55.907Z,74.63
2018-04-27T02:06:21.684Z,74.76
2018-04-27T02:08:47.441Z,74.75
2018-04-27T02:11:13.220Z,74.80
2018-04-27T02:13:38.959Z,74.96
2018-04-27T02:16:04.752Z,75.04
2018-04-27T02:18:30.639Z,75.23
2018-04-27T02:20:56.507Z,74.93
2018-04-27T02:23:22.273Z,74.86
2018-04-27T02:25:48.068Z,75.03
2018-04-27T02:28:13.819Z,75.28
2018-04-27T02:30:39.641Z,75.04
2018-04-27T02:33:05.395Z,74.79
2018-04-27T02:35:31.167Z,75.12
2018-04-27T02:37:56.928Z,75.06
2018-04-27T02:40:22.683Z,75.38
2018-04-27T02:42:48.460Z,75.54
2018-04-27T02:45:14.219Z,75.70
2018-04-27T02:47:39.975Z,75.51
2018-04-27T02:53:01.264Z,75.68
2018-04-27T02:55:27.081Z,75.47
2018-04-27T02:57:52.898Z,75.59
2018-04-27T03:00:18.682Z,75.52
2018-04-27T03:02:44.465Z,75.26
2018-04-27T03:05:10.257Z,75.16
2018-04-27T03:07:36.024Z,75.18
2018-04-27T03:10:01.781Z,74.84
2018-04-27T03:12:27.573Z,74.63
2018-04-27T03:14:53.411Z,74.42
2018-04-27T03:17:19.170Z,74.48
2018-04-27T03:19:44.920Z,73.97
2018-04-27T03:22:10.719Z,74.11
2018-04-27T03:24:36.475Z,73.91
2018-04-27T03:27:02.284Z,73.58
2018-04-27T03:29:28.047Z,73.62
2018-04-27T03:31:53.832Z,73.48
2018-04-27T03:34:19.659Z,73.20
2018-04-27T03:36:45.372Z,73.42
2018-04-27T03:39:11.119Z,72.95
2018-04-27T03:41:36.910Z,73.05
2018-04-27T03:44:03.671Z,73.10
2018-04-27T03:46:29.457Z,73.04
2018-04-27T03:48:55.208Z,73.26
2018-04-27T03:51:21.360Z,72.90
2018-04-27T03:53:47.131Z,73.34
2018-04-27T03:56:12.903Z,73.45
2018-04-27T03:58:38.663Z,73.71
2018-04-27T04:01:16.877Z,73.76
2018-04-27T04:03:55.003Z,73.65
2018-04-27T04:06:20.760Z,73.49
2018-04-27T04:08:46.503Z,73.48
2018-04-27T04:11:12.274Z,73.50
2018-04-27T04:13:38.048Z,73.17
2018-04-27T04:16:03.817Z,73.28
2018-04-27T04:18:29.677Z,72.70
2018-04-27T04:20:55.455Z,72.42
2018-04-27T04:23:21.228Z,72.04
2018-04-27T04:25:47.011Z,71.71
2018-04-27T04:28:12.779Z,71.52
2018-04-27T04:30:38.560Z,71.78
2018-04-27T04:33:04.291Z,71.74
2018-04-27T04:35:30.071Z,72.61
2018-04-27T04:37:55.838Z,72.48
2018-04-27T04:40:21.624Z,72.88
2018-04-27T04:42:47.439Z,71.62
2018-04-27T04:45:13.221Z,71.85
2018-04-27T04:47:39.004Z,71.71
2018-04-27T04:50:04.766Z,71.51
2018-04-27T04:52:30.661Z,70.79
2018-04-27T04:54:56.358Z,70.96
2018-04-27T04:57:22.324Z,70.62
2018-04-27T04:59:48.074Z,70.40
2018-04-27T05:02:13.875Z,70.22
2018-04-27T05:04:39.628Z,70.52
2018-04-27T05:07:05.459Z,70.89
2018-04-27T05:09:31.214Z,71.01
2018-04-27T05:11:57.002Z,71.41
2018-04-27T05:14:22.743Z,71.35
2018-04-27T05:16:48.531Z,71.48
2018-04-27T05:19:14.307Z,71.25
2018-04-27T05:21:40.115Z,70.85
2018-04-27T05:24:05.910Z,70.49
2018-04-27T05:26:31.693Z,70.23
2018-04-27T05:28:57.453Z,70.18
2018-04-27T05:31:23.265Z,69.98
2018-04-27T05:33:49.063Z,70.02
2018-04-27T05:36:14.830Z,70.01
2018-04-27T05:38:40.609Z,69.86
2018-04-27T05:41:06.415Z,70.03
2018-04-27T05:43:32.236Z,70.03
2018-04-27T05:45:58.042Z,70.16
2018-04-27T05:48:24.074Z,70.73
2018-04-27T05:50:49.795Z,70.82
2018-04-27T05:53:15.587Z,70.80
2018-04-27T05:55:41.373Z,70.76
2018-04-27T05:58:07.563Z,70.94
2018-04-27T06:00:33.339Z,70.57
2018-04-27T06:02:59.100Z,71.32
2018-04-27T06:05:25.739Z,70.67
2018-04-27T06:07:51.547Z,69.93
2018-04-27T06:10:17.303Z,69.73
2018-04-27T06:12:43.091Z,69.40
2018-04-27T06:15:08.827Z,69.10
2018-04-27T06:17:34.618Z,68.66
2018-04-27T06:20:00.395Z,68.80
2018-04-27T06:22:26.215Z,68.44
2018-04-27T06:24:51.988Z,68.24
2018-04-27T06:27:17.779Z,67.58
2018-04-27T06:29:43.591Z,67.67
2018-04-27T06:32:09.402Z,67.45
2018-04-27T06:34:35.176Z,67.44
2018-04-27T06:37:01.023Z,67.19
2018-04-27T06:39:26.911Z,67.52
2018-04-27T06:41:52.656Z,67.33
2018-04-27T06:44:18.420Z,67.10
2018-04-27T06:46:44.231Z,66.11
2018-04-27T06:49:10.007Z,66.35
2018-04-27T06:51:35.823Z,66.43
2018-04-27T06:54:01.674Z,66.02
2018-04-27T06:56:27.461Z,65.99
2018-04-27T06:58:53.262Z,66.08
2018-04-27T07:01:19.044Z,65.80
2018-04-27T07:03:44.827Z,65.59
2018-04-27T07:06:10.594Z,64.58
2018-04-27T07:08:36.392Z,64.96
2018-04-27T07:11:02.165Z,65.01
2018-04-27T07:13:28.526Z,65.16
2018-04-27T07:15:54.315Z,63.98
2018-04-27T07:18:20.075Z,63.34
2018-04-27T07:20:45.880Z,63.35
2018-04-27T07:23:11.696Z,63.20
2018-04-27T07:25:37.490Z,62.32
2018-04-27T07:28:03.273Z,62.12
2018-04-27T07:30:29.072Z,61.44
2018-04-27T07:32:54.831Z,61.35
2018-04-27T07:35:20.641Z,61.88
2018-04-27T07:37:46.406Z,60.88
2018-04-27T07:40:12.269Z,60.93
2018-04-27T07:42:38.015Z,60.41
2018-04-27T07:45:03.801Z,61.01
2018-04-27T07:47:29.583Z,61.43
2018-04-27T07:49:55.352Z,61.20
2018-04-27T07:52:28.168Z,60.78
2018-04-27T07:54:53.958Z,60.99
2018-04-27T07:57:19.804Z,61.33
2018-04-27T07:59:45.583Z,60.79
2018-04-27T08:02:11.397Z,60.71
2018-04-27T08:04:37.139Z,60.19
2018-04-27T08:07:02.919Z,59.84
2018-04-27T08:09:28.695Z,59.19
2018-04-27T08:11:54.473Z,58.31
2018-04-27T08:14:20.267Z,56.38
2018-04-27T08:16:46.076Z,55.88
2018-04-27T08:19:11.838Z,55.67
2018-04-27T08:21:37.668Z,56.10
2018-04-27T08:24:03.443Z,54.85
2018-04-27T08:26:29.226Z,54.53
2018-04-27T08:28:54.998Z,54.31
2018-04-27T08:31:20.800Z,53.69
2018-04-27T08:33:46.575Z,52.97
2018-04-27T08:36:12.387Z,53.53
2018-04-27T08:38:38.078Z,53.06
2018-04-27T08:41:03.871Z,54.16
2018-04-27T08:43:29.691Z,52.69
2018-04-27T08:45:55.471Z,52.18
2018-04-27T08:48:21.227Z,52.30
2018-04-27T08:50:47.028Z,52.43
2018-04-27T08:53:12.816Z,52.91
2018-04-27T08:55:38.923Z,51.60
2018-04-27T08:58:04.813Z,51.49
2018-04-27T09:00:30.615Z,50.91
2018-04-27T09:02:56.385Z,50.79
2018-04-27T09:05:22.132Z,49.25
2018-04-27T09:07:47.911Z,49.81
2018-04-27T09:10:13.679Z,49.19
2018-04-27T09:12:39.451Z,49.17
2018-04-27T09:15:05.208Z,48.42
2018-04-27T09:17:30.980Z,47.75
2018-04-27T09:19:56.801Z,47.52
2018-04-27T09:22:22.635Z,47.17
2018-04-27T09:24:48.415Z,48.01
2018-04-27T09:27:14.443Z,48.43
2018-04-27T09:29:40.206Z,47.88
2018-04-27T09:32:06.000Z,47.33
2018-04-27T09:34:31.759Z,46.12
2018-04-27T09:36:57.543Z,45.13
2018-04-27T09:39:23.331Z,44.12
2018-04-27T09:41:49.091Z,45.26
2018-04-27T09:44:14.868Z,45.00
2018-04-27T09:46:40.631Z,44.68
2018-04-27T09:49:06.435Z,43.57
2018-04-27T09:51:32.260Z,43.43
2018-04-27T09:53:58.011Z,43.18
2018-04-27T09:56:23.813Z,43.49
2018-04-27T09:58:49.624Z,44.06
2018-04-27T10:01:15.422Z,42.50
2018-04-27T10:03:41.221Z,43.34
2018-04-27T10:06:06.984Z,43.30
2018-04-27T10:08:32.735Z,43.47
2018-04-27T10:10:58.501Z,42.97
2018-04-27T10:13:24.319Z,42.25
2018-04-27T10:15:50.075Z,41.63
2018-04-27T10:18:15.862Z,41.19
2018-04-27T10:20:41.623Z,42.06
2018-04-27T10:23:07.449Z,41.10
2018-04-27T10:25:33.235Z,41.79
2018-04-27T10:27:59.126Z,41.05
2018-04-27T10:30:24.891Z,40.87
2018-04-27T10:32:50.668Z,40.34
2018-04-27T10:35:16.477Z,40.24
2018-04-27T10:37:42.279Z,40.43
2018-04-27T10:40:08.103Z,39.14
2018-04-27T10:42:33.871Z,39.97
2018-04-27T10:44:59.661Z,39.25
2018-04-27T10:47:25.452Z,39.59
2018-04-27T10:49:51.256Z,39.00
2018-04-27T10:52:17.042Z,38.37
2018-04-27T10:54:43.036Z,37.90
2018-04-27T10:57:08.853Z,38.47
2018-04-27T10:59:34.631Z,37.71
2018-04-27T11:02:00.407Z,37.04
2018-04-27T11:04:26.207Z,35.88
2018-04-27T11:06:53.011Z,35.68
2018-04-27T11:09:18.792Z,37.11
2018-04-27T11:11:44.597Z,36.67
2018-04-27T11:14:10.368Z,37.32
2018-04-27T11:16:36.150Z,37.37
2018-04-27T11:19:01.980Z,36.46
2018-04-27T11:21:27.744Z,37.79
2018-04-27T11:23:53.510Z,36.39
2018-04-27T11:26:19.432Z,37.21
2018-04-27T11:28:52.011Z,37.44
2018-04-27T11:31:17.775Z,36.22
2018-04-27T11:33:43.618Z,36.33
2018-04-27T11:36:09.344Z,36.68
2018-04-27T11:38:35.125Z,36.05
2018-04-27T11:41:00.887Z,36.01
2018-04-27T11:43:26.672Z,37.05
2018-04-27T11:45:52.444Z,37.43
2018-04-27T11:48:18.304Z,35.87
2018-04-27T11:50:44.024Z,35.22
2018-04-27T11:53:09.808Z,35.05
2018-04-27T11:55:35.663Z,36.12
2018-04-27T11:58:01.468Z,35.96
2018-04-27T12:00:27.242Z,36.22
2018-04-27T12:02:53.038Z,37.36
2018-04-27T12:05:18.797Z,37.72
2018-04-27T12:07:44.583Z,36.89
2018-04-27T12:10:10.364Z,37.45
2018-04-27T12:12:36.172Z,37.70
2018-04-27T12:15:01.967Z,37.36
2018-04-27T12:17:27.732Z,36.99
2018-04-27T12:19:53.507Z,36.26
2018-04-27T12:22:19.259Z,36.23
2018-04-27T12:24:45.032Z,36.19
2018-04-27T12:27:10.826Z,37.41
2018-04-27T12:29:36.583Z,37.32
2018-04-27T12:32:02.351Z,36.87
2018-04-27T12:34:28.126Z,36.40
2018-04-27T12:36:53.885Z,36.70
2018-04-27T12:39:19.744Z,36.54
2018-04-27T12:41:45.524Z,35.54
2018-04-27T12:44:11.316Z,35.77
2018-04-27T12:46:37.084Z,35.73
2018-04-27T12:49:02.856Z,35.06
2018-04-27T12:51:28.620Z,35.06
2018-04-27T12:53:54.429Z,35.01
2018-04-27T12:56:20.187Z,35.06
2018-04-27T12:58:45.943Z,35.17
2018-04-27T13:01:11.711Z,34.84
2018-04-27T13:03:37.491Z,34.07
2018-04-27T13:06:03.251Z,34.71
2018-04-27T13:08:29.044Z,34.40
2018-04-27T13:10:54.812Z,34.68
2018-04-27T13:13:20.636Z,35.09
2018-04-27T13:15:46.427Z,35.40
2018-04-27T13:18:12.192Z,33.85
2018-04-27T13:20:38.040Z,32.71
2018-04-27T13:23:03.796Z,31.76
2018-04-27T13:25:29.575Z,32.18
2018-04-27T13:27:55.614Z,32.52
2018-04-27T13:30:21.406Z,32.18
2018-04-27T13:32:47.151Z,32.56
2018-04-27T13:35:12.951Z,33.48
2018-04-27T13:37:38.737Z,34.00
2018-04-27T13:40:04.557Z,34.32
2018-04-27T13:42:30.323Z,34.06
2018-04-27T13:44:56.128Z,34.34
2018-04-27T13:47:21.921Z,33.99
2018-04-27T13:49:47.682Z,33.69
2018-04-27T13:52:13.454Z,33.08
2018-04-27T13:54:39.227Z,33.82
2018-04-27T13:57:05.279Z,33.95
2018-04-27T13:59:31.139Z,33.51
2018-04-27T14:01:56.918Z,33.81
2018-04-27T14:04:22.707Z,34.70
2018-04-27T14:06:48.498Z,34.23
2018-04-27T14:09:14.310Z,34.04
2018-04-27T14:11:40.099Z,34.90
2018-04-27T14:14:05.903Z,33.63
2018-04-27T14:16:31.676Z,34.85
2018-04-27T14:18:57.509Z,34.29
2018-04-27T14:21:23.356Z,32.97
2018-04-27T14:23:49.087Z,33.56
2018-04-27T14:26:14.887Z,35.03
2018-04-27T14:28:40.676Z,34.27
2018-04-27T14:31:06.479Z,33.72
2018-04-27T14:33:32.241Z,34.06
2018-04-27T14:35:58.023Z,33.84
2018-04-27T14:38:23.779Z,33.92
2018-04-27T14:40:49.562Z,34.25
2018-04-27T14:43:15.315Z,35.24
2018-04-27T14:45:41.156Z,34.95
2018-04-27T14:48:06.940Z,35.42
2018-04-27T14:50:32.982Z,36.19
2018-04-27T14:52:58.768Z,34.93
2018-04-27T14:55:24.531Z,34.30
2018-04-27T14:57:50.472Z,34.46
2018-04-27T15:00:16.566Z,32.60
2018-04-27T15:02:42.416Z,32.94
2018-04-27T15:05:08.174Z,33.19
2018-04-27T15:07:33.973Z,33.44
2018-04-27T15:09:59.727Z,33.83
2018-04-27T15:12:25.513Z,33.53
2018-04-27T15:14:51.303Z,33.61
2018-04-27T15:17:17.059Z,33.60
2018-04-27T15:19:42.811Z,33.98
2018-04-27T15:22:08.586Z,32.91
2018-04-27T15:24:34.350Z,32.71
2018-04-27T15:27:00.164Z,32.72
2018-04-27T15:29:25.939Z,31.99
2018-04-27T15:31:51.719Z,32.43
2018-04-27T15:34:17.727Z,32.59
2018-04-27T15:36:43.515Z,32.42
2018-04-27T15:39:09.330Z,32.80
2018-04-27T15:41:35.076Z,33.00
2018-04-27T15:44:00.885Z,33.49
2018-04-27T15:46:26.683Z,34.10
2018-04-27T15:48:52.495Z,34.29
2018-04-27T15:51:18.279Z,34.38
2018-04-27T15:53:44.056Z,34.67
2018-04-27T15:56:09.845Z,34.42
2018-04-27T15:58:35.668Z,33.68
2018-04-27T16:01:01.464Z,33.88
2018-04-27T16:03:27.247Z,33.43
2018-04-27T16:05:53.032Z,33.55
2018-04-27T16:08:18.845Z,33.28
2018-04-27T16:10:44.644Z,34.12
2018-04-27T16:16:14.124Z,34.66
2018-04-27T16:18:39.908Z,34.68
2018-04-27T16:21:05.712Z,34.71
2018-04-27T16:23:31.524Z,35.05
2018-04-27T16:25:57.361Z,35.43
2018-04-27T16:28:23.143Z,35.62
2018-04-27T16:30:48.977Z,36.04
2018-04-27T16:33:14.787Z,35.58
2018-04-27T16:35:40.547Z,35.88
2018-04-27T16:38:06.337Z,36.19
2018-04-27T16:40:32.124Z,36.45
2018-04-27T16:42:57.904Z,36.42
2018-04-27T16:45:23.676Z,36.11
2018-04-27T16:47:49.459Z,36.61
2018-04-27T16:50:15.230Z,36.26
2018-04-27T16:52:41.032Z,36.08
2018-04-27T16:55:06.867Z,36.39
2018-04-27T16:57:32.650Z,36.79
2018-04-27T16:59:58.413Z,35.97
2018-04-27T17:02:24.163Z,35.92
2018-04-27T17:04:49.937Z,36.58
2018-04-27T17:07:15.727Z,37.07
2018-04-27T17:09:41.527Z,38.49
2018-04-27T17:12:07.312Z,38.88
2018-04-27T17:14:33.098Z,38.99
2018-04-27T17:16:58.871Z,39.09
2018-04-27T17:19:24.845Z,38.71
2018-04-27T17:21:50.590Z,38.24
2018-04-27T17:24:16.368Z,37.91
2018-04-27T17:26:42.144Z,37.64
2018-04-27T17:29:07.927Z,37.71
2018-04-27T17:31:33.771Z,38.07
2018-04-27T17:33:59.531Z,38.02
2018-04-27T17:36:25.313Z,38.56
2018-04-27T17:38:51.143Z,37.66
2018-04-27T17:41:17.013Z,37.70
2018-04-27T17:43:42.811Z,38.14
2018-04-27T17:46:08.568Z,38.03
2018-04-27T17:48:34.368Z,37.57
2018-04-27T17:51:00.132Z,37.67
2018-04-27T17:53:25.997Z,37.58
2018-04-27T17:55:51.761Z,37.86
2018-04-27T17:58:17.627Z,38.25
2018-04-27T18:00:43.407Z,38.35
2018-04-27T18:03:09.191Z,38.64
2018-04-27T18:05:34.966Z,39.10
2018-04-27T18:08:00.746Z,40.02
2018-04-27T18:10:26.678Z,40.04
2018-04-27T18:12:52.487Z,39.87
2018-04-27T18:15:18.289Z,39.85
2018-04-27T18:17:44.151Z,40.18
2018-04-27T18:20:09.909Z,40.16
2018-04-27T18:22:35.955Z,40.05
2018-04-27T18:25:01.773Z,40.79
2018-04-27T18:27:27.535Z,42.62
2018-04-27T18:29:53.356Z,41.67
2018-04-27T18:32:19.113Z,41.77
2018-04-27T18:34:44.879Z,42.18
2018-04-27T18:37:10.671Z,42.92
2018-04-27T18:39:37.631Z,43.71
2018-04-27T18:42:03.410Z,44.39
2018-04-27T18:44:29.283Z,44.91
2018-04-27T18:46:55.069Z,46.39
2018-04-27T18:49:20.860Z,46.40
2018-04-27T18:51:46.654Z,46.57
2018-04-27T18:54:12.451Z,47.16
2018-04-27T18:56:38.223Z,45.84
2018-04-27T18:59:04.037Z,46.76
2018-04-27T19:01:29.823Z,46.74
2018-04-27T19:03:55.631Z,45.98
2018-04-27T19:06:23.392Z,45.94
2018-04-27T19:08:49.236Z,47.87
2018-04-27T19:11:14.987Z,48.73
2018-04-27T19:13:40.743Z,49.60
2018-04-27T19:16:06.588Z,50.30
2018-04-27T19:18:32.355Z,50.76
2018-04-27T19:20:58.505Z,50.88
2018-04-27T19:23:25.190Z,50.50
2018-04-27T19:25:50.968Z,52.03
2018-04-27T19:28:17.608Z,53.03
2018-04-27T19:30:43.427Z,53.15
2018-04-27T19:33:09.313Z,52.97
2018-04-27T19:35:35.079Z,52.65
2018-04-27T19:38:00.860Z,51.31
2018-04-27T19:40:26.647Z,52.24
2018-04-27T19:42:52.447Z,53.12
2018-04-27T19:45:18.195Z,52.07
2018-04-27T19:47:43.955Z,51.14
2018-04-27T19:50:09.727Z,52.77
2018-04-27T19:52:35.491Z,53.64
2018-04-27T19:55:01.521Z,54.04
2018-04-27T19:57:27.314Z,52.66
2018-04-27T19:59:53.099Z,50.91
2018-04-27T20:02:18.867Z,48.04
2018-04-27T20:04:44.734Z,48.47
2018-04-27T20:07:10.601Z,47.35
2018-04-27T20:09:36.460Z,47.79
2018-04-27T20:12:02.272Z,48.65
2018-04-27T20:14:32.803Z,48.75
2018-04-27T20:16:59.551Z,48.52
2018-04-27T20:19:25.338Z,48.38
2018-04-27T20:21:51.135Z,47.81
2018-04-27T20:24:16.942Z,49.48
2018-04-27T20:26:42.690Z,50.36
2018-04-27T20:29:08.804Z,49.66
2018-04-27T20:31:34.665Z,50.11
2018-04-27T20:34:00.460Z,51.24
2018-04-27T20:36:26.259Z,51.33
2018-04-27T20:38:52.004Z,50.08
2018-04-27T20:41:17.773Z,49.49
2018-04-27T20:43:43.608Z,50.88
2018-04-27T20:46:09.415Z,50.00
2018-04-27T20:48:35.184Z,51.22
2018-04-27T20:51:01.913Z,52.13
2018-04-27T20:53:29.588Z,51.41
2018-04-27T20:56:01.617Z,50.85
2018-04-27T20:58:27.391Z,51.32
2018-04-27T21:00:53.196Z,52.02
2018-04-27T21:03:18.966Z,50.54
2018-04-27T21:05:44.750Z,51.29
2018-04-27T21:08:10.528Z,51.04
2018-04-27T21:10:36.287Z,50.91
2018-04-27T21:13:03.976Z,50.97
2018-04-27T21:15:29.788Z,50.71
2018-04-27T21:17:55.608Z,50.77
2018-04-27T21:20:21.378Z,50.97
2018-04-27T21:22:48.164Z,51.37
2018-04-27T21:25:13.956Z,52.25
2018-04-27T21:27:40.588Z,52.54
2018-04-27T21:30:06.454Z,53.28
2018-04-27T21:32:32.162Z,54.94
2018-04-27T21:34:57.928Z,55.15
2018-04-27T21:37:23.716Z,55.78
2018-04-27T21:39:49.500Z,56.07
2018-04-27T21:42:15.283Z,55.92
2018-04-27T21:44:41.036Z,56.21
2018-04-27T21:47:06.815Z,56.34
2018-04-27T21:49:32.563Z,56.62
2018-04-27T21:51:58.343Z,56.70
2018-04-27T21:54:24.103Z,56.95
2018-04-27T21:56:56.811Z,57.13
2018-04-27T21:59:29.504Z,57.26
2018-04-27T22:01:55.458Z,57.77
2018-04-27T22:04:21.231Z,58.42
2018-04-27T22:06:47.047Z,58.98
2018-04-27T22:09:12.828Z,59.09
2018-04-27T22:11:46.691Z,59.93
2018-04-27T22:14:16.243Z,60.02
2018-04-27T22:16:42.044Z,60.90
2018-04-27T22:19:09.639Z,60.80
2018-04-27T22:21:37.479Z,61.27
2018-04-27T22:24:13.228Z,62.12
2018-04-27T22:26:39.020Z,62.38
2018-04-27T22:29:05.851Z,62.25
2018-04-27T22:31:31.627Z,62.52
2018-04-27T22:33:58.307Z,63.09
2018-04-27T22:36:25.057Z,63.21
2018-04-27T22:41:56.143Z,63.80
2018-04-27T22:44:21.915Z,63.75
2018-04-27T22:46:47.704Z,63.97
2018-04-27T22:49:14.281Z,64.09
2018-04-27T22:51:40.911Z,64.46
2018-04-27T22:54:06.744Z,65.03
2018-04-27T22:59:29.851Z,66.19
2018-04-27T23:01:58.467Z,66.37
2018-04-27T23:04:24.227Z,66.49
2018-04-27T23:06:50.007Z,66.53
2018-04-27T23:09:15.771Z,66.56
2018-04-27T23:11:41.559Z,66.74
2018-04-27T23:14:10.290Z,67.01
2018-04-27T23:16:36.087Z,67.35
2018-04-27T23:19:01.851Z,67.38
2018-04-27T23:24:32.980Z,67.66
2018-04-27T23:26:59.747Z,68.02
2018-04-27T23:29:25.547Z,68.03
2018-04-27T23:31:51.312Z,67.89
2018-04-27T23:34:18.939Z,67.57
2018-04-27T23:36:44.763Z,67.39
2018-04-27T23:39:10.539Z,67.12
2018-04-27T23:41:36.323Z,66.94
2018-04-27T23:44:02.115Z,66.66
2018-04-27T23:46:28.101Z,66.70
2018-04-27T23:48:53.895Z,67.10
2018-04-27T23:51:19.661Z,66.75
2018-04-27T23:53:45.426Z,66.41
2018-04-27T23:56:11.186Z,66.04
2018-04-27T23:58:36.963Z,66.04
